Time;durP1;ratioP1;P1;durP2;ratioP2;P2;SDS_P1;SDS_P2;PMS_P1;PMS_P2;Temp;Humidity;BMP_temperature;BMP_pressure;BME280_temperature;BME280_humidity;BME280_pressure;Samples;Min_cycle;Max_cycle;Signal;HPM_P1;HPM_P2
2021/08/01 00:01:34;;;;;;;3.43;3.23;;;16.90;99.90;;;;;;4994402;28;20414;-70
2021/08/01 00:04:00;;;;;;;3.50;3.20;;;16.90;99.90;;;;;;4994545;28;20433;-70
2021/08/01 00:06:26;;;;;;;3.27;3.07;;;16.90;99.90;;;;;;4994555;28;20171;-70
2021/08/01 00:08:53;;;;;;;3.43;3.17;;;16.80;99.90;;;;;;4994504;28;20190;-70
2021/08/01 00:11:19;;;;;;;3.07;2.90;;;16.80;99.90;;;;;;4994450;28;20502;-70
2021/08/01 00:13:44;;;;;;;5.57;4.50;;;16.80;99.90;;;;;;4994406;28;20857;-70
2021/08/01 00:16:10;;;;;;;3.80;3.60;;;16.80;99.90;;;;;;4994432;28;20414;-70
2021/08/01 00:18:36;;;;;;;5.43;4.73;;;16.70;99.90;;;;;;4994349;28;20171;-70
2021/08/01 00:21:03;;;;;;;4.83;4.40;;;16.70;99.90;;;;;;4994289;28;20238;-70
2021/08/01 00:23:28;;;;;;;4.73;4.33;;;16.80;99.90;;;;;;4994218;28;20450;-70
2021/08/01 00:25:56;;;;;;;4.83;4.43;;;16.80;99.90;;;;;;4994340;28;20408;-70
2021/08/01 00:28:22;;;;;;;3.80;3.50;;;16.80;99.90;;;;;;4994186;28;20608;-70
2021/08/01 00:30:48;;;;;;;4.27;3.97;;;16.80;99.90;;;;;;4994212;28;20411;-70
2021/08/01 00:33:14;;;;;;;3.60;3.30;;;16.70;99.90;;;;;;4994277;28;20461;-70
2021/08/01 00:35:39;;;;;;;4.87;4.23;;;16.70;99.90;;;;;;4994235;28;20175;-70
2021/08/01 00:38:07;;;;;;;4.40;4.00;;;16.80;99.90;;;;;;4994238;28;20171;-70
2021/08/01 00:40:33;;;;;;;4.33;3.90;;;16.70;99.90;;;;;;4994405;28;20190;-70
2021/08/01 00:42:58;;;;;;;4.13;3.80;;;16.70;99.90;;;;;;4994310;28;20451;-70
2021/08/01 00:45:24;;;;;;;4.13;3.83;;;16.80;99.90;;;;;;4994230;28;20174;-70
2021/08/01 00:47:49;;;;;;;5.93;4.50;;;16.70;99.90;;;;;;4994157;28;20182;-70
2021/08/01 00:50:15;;;;;;;5.80;4.97;;;16.70;99.90;;;;;;4993981;28;20605;-70
2021/08/01 00:52:43;;;;;;;5.10;4.70;;;16.70;99.90;;;;;;4994056;28;20516;-70
2021/08/01 00:55:10;;;;;;;4.63;4.30;;;16.70;99.90;;;;;;4994087;28;20177;-70
2021/08/01 00:57:36;;;;;;;4.40;4.10;;;16.70;99.90;;;;;;4994294;28;20402;-70
2021/08/01 01:00:05;;;;;;;5.03;4.43;;;16.70;99.90;;;;;;4996419;28;20406;-70
2021/08/01 01:02:37;;;;;;;4.00;3.60;;;16.80;99.90;;;;;;4997773;28;20449;-70
2021/08/01 01:05:12;;;;;;;3.83;3.53;;;16.70;99.90;;;;;;4997838;28;20440;-70
2021/08/01 01:07:55;;;;;;;3.60;3.30;;;16.70;99.90;;;;;;4997692;28;20401;-70
2021/08/01 01:10:34;;;;;;;6.07;4.13;;;16.70;99.90;;;;;;4997669;28;20385;-70
2021/08/01 01:13:15;;;;;;;3.57;3.27;;;16.70;99.90;;;;;;4997717;28;20875;-70
2021/08/01 01:15:49;;;;;;;3.53;3.33;;;16.60;99.90;;;;;;4997520;28;20410;-70
2021/08/01 01:18:21;;;;;;;5.43;4.10;;;16.60;99.90;;;;;;4997532;28;20715;-70
2021/08/01 01:21:19;;;;;;;5.10;3.77;;;16.70;99.90;;;;;;4997491;28;20819;-70
2021/08/01 01:23:46;;;;;;;3.03;2.83;;;16.70;99.90;;;;;;4997468;28;20476;-70
2021/08/01 01:26:33;;;;;;;4.43;3.40;;;16.70;99.90;;;;;;4997364;28;20407;-70
2021/08/01 01:29:23;;;;;;;4.67;4.17;;;16.70;99.90;;;;;;4997650;28;20391;-70
2021/08/01 01:31:49;;;;;;;4.80;4.30;;;16.70;99.90;;;;;;4997318;28;20410;-70
2021/08/01 01:34:39;;;;;;;5.03;3.77;;;16.60;99.90;;;;;;4997271;28;20403;-70
2021/08/01 01:37:10;;;;;;;4.73;4.20;;;16.60;99.90;;;;;;4997292;28;20967;-70
2021/08/01 01:39:40;;;;;;;5.20;4.03;;;16.50;99.90;;;;;;4997121;28;20422;-70
2021/08/01 01:42:12;;;;;;;4.23;3.90;;;16.60;99.90;;;;;;4996931;28;20438;-70
2021/08/01 01:44:38;;;;;;;4.50;4.13;;;16.60;99.90;;;;;;4997114;28;20494;-70
2021/08/01 01:47:05;;;;;;;4.23;3.87;;;16.60;99.90;;;;;;4997045;28;20406;-70
2021/08/01 01:49:31;;;;;;;3.90;3.53;;;16.60;99.90;;;;;;4996782;28;20534;-70
2021/08/01 01:51:58;;;;;;;4.60;4.30;;;16.70;99.90;;;;;;4996868;28;20891;-70
2021/08/01 01:54:24;;;;;;;8.50;4.37;;;16.70;99.90;;;;;;4996846;28;20407;-70
2021/08/01 01:56:51;;;;;;;4.07;3.67;;;16.60;99.90;;;;;;4996793;28;20411;-70
2021/08/01 01:59:18;;;;;;;4.43;4.13;;;16.60;99.90;;;;;;4996732;28;20724;-70
2021/08/01 02:01:44;;;;;;;4.87;4.10;;;16.60;99.90;;;;;;4996641;28;20422;-70
2021/08/01 02:04:09;;;;;;;4.93;4.13;;;16.60;99.90;;;;;;4996774;28;20469;-70
2021/08/01 02:06:35;;;;;;;5.53;4.90;;;16.60;99.90;;;;;;4996900;28;20186;-70
2021/08/01 02:09:21;;;;;;;5.80;5.30;;;16.60;99.90;;;;;;4996576;28;20176;-70
2021/08/01 02:12:26;;;;;;;5.97;5.43;;;16.50;99.90;;;;;;4995553;28;20167;-70
2021/08/01 02:15:02;;;;;;;5.63;5.03;;;16.50;99.90;;;;;;4995987;28;20460;-70
2021/08/01 02:17:54;;;;;;;7.03;5.90;;;16.40;99.90;;;;;;4996548;28;20407;-70
2021/08/01 02:20:25;;;;;;;7.13;6.07;;;16.40;99.90;;;;;;4985322;28;20510;-70
2021/08/01 02:22:53;;;;;;;6.90;6.20;;;16.50;99.90;;;;;;4996365;28;20768;-70
2021/08/01 02:25:20;;;;;;;8.73;6.17;;;16.50;99.90;;;;;;4996369;28;20491;-70
2021/08/01 02:27:48;;;;;;;8.23;6.50;;;16.40;99.90;;;;;;4996160;28;20860;-70
2021/08/01 02:30:16;;;;;;;9.60;7.60;;;16.40;99.90;;;;;;4996180;28;20449;-70
2021/08/01 02:32:43;;;;;;;8.97;7.83;;;16.50;99.90;;;;;;4996209;28;20418;-70
2021/08/01 02:35:10;;;;;;;8.70;7.90;;;16.40;99.90;;;;;;4996097;28;20406;-70
2021/08/01 02:37:37;;;;;;;7.70;7.00;;;16.30;99.90;;;;;;4996046;28;20446;-70
2021/08/01 02:40:04;;;;;;;8.43;7.47;;;16.30;99.90;;;;;;4996082;28;20501;-70
2021/08/01 02:42:31;;;;;;;8.20;6.50;;;16.30;99.90;;;;;;4995913;28;20524;-70
2021/08/01 02:44:59;;;;;;;8.83;7.47;;;16.30;99.90;;;;;;4995903;28;20426;-70
2021/08/01 02:47:28;;;;;;;8.70;7.80;;;16.30;99.90;;;;;;4996107;28;20436;-71
2021/08/01 02:49:55;;;;;;;9.10;8.20;;;16.20;99.90;;;;;;4995804;28;20811;-70
2021/08/01 02:52:51;;;;;;;10.90;8.13;;;16.30;99.90;;;;;;4995724;28;20414;-70
2021/08/01 02:55:17;;;;;;;10.23;8.70;;;16.30;99.90;;;;;;4995856;28;20422;-70
2021/08/01 02:57:47;;;;;;;9.00;7.93;;;16.30;99.90;;;;;;4995645;28;20868;-70
2021/08/01 03:00:14;;;;;;;9.07;8.17;;;16.30;99.90;;;;;;4995973;28;20229;-70
2021/08/01 03:02:39;;;;;;;12.13;8.13;;;16.30;99.90;;;;;;4995488;28;20935;-70
2021/08/01 03:05:06;;;;;;;8.27;7.47;;;16.30;99.90;;;;;;4995520;28;20418;-70
2021/08/01 03:07:33;;;;;;;8.60;7.90;;;16.30;99.90;;;;;;4995546;28;20230;-70
2021/08/01 03:09:59;;;;;;;12.47;8.80;;;16.30;99.90;;;;;;4995519;28;20415;-70
2021/08/01 03:12:26;;;;;;;10.43;8.80;;;16.30;99.90;;;;;;4995377;28;20895;-70
2021/08/01 03:14:51;;;;;;;9.70;8.17;;;16.30;99.90;;;;;;4995314;28;20398;-70
2021/08/01 03:17:17;;;;;;;9.13;7.70;;;16.20;99.90;;;;;;4995232;28;20413;-70
2021/08/01 03:19:43;;;;;;;8.73;7.83;;;16.20;99.90;;;;;;4995305;28;20171;-70
2021/08/01 03:22:09;;;;;;;13.03;8.70;;;16.30;99.90;;;;;;4994944;28;20563;-70
2021/08/01 03:24:34;;;;;;;10.57;8.80;;;16.30;99.90;;;;;;4995207;28;20508;-70
2021/08/01 03:27:00;;;;;;;10.10;7.23;;;16.20;99.90;;;;;;4995045;28;20399;-70
2021/08/01 03:29:26;;;;;;;9.63;7.93;;;16.20;99.90;;;;;;4995075;28;20263;-70
2021/08/01 03:31:52;;;;;;;7.97;7.27;;;16.20;99.90;;;;;;4995093;28;20203;-70
2021/08/01 03:34:18;;;;;;;10.53;7.90;;;16.20;99.90;;;;;;4995035;28;20175;-70
2021/08/01 03:36:44;;;;;;;7.63;6.87;;;16.30;99.90;;;;;;4995442;28;20183;-70
2021/08/01 03:39:09;;;;;;;8.83;7.70;;;16.30;99.90;;;;;;4994931;28;20750;-70
2021/08/01 03:41:35;;;;;;;9.23;7.83;;;16.20;99.90;;;;;;4994918;28;20609;-70
2021/08/01 03:44:00;;;;;;;10.07;8.00;;;16.20;99.90;;;;;;4994881;28;20171;-70
2021/08/01 03:46:26;;;;;;;9.40;8.50;;;16.20;99.90;;;;;;4994761;28;20185;-70
2021/08/01 03:48:52;;;;;;;12.17;8.03;;;16.20;99.90;;;;;;4994612;28;20270;-70
2021/08/01 03:51:17;;;;;;;8.60;7.80;;;16.20;99.90;;;;;;4994770;28;20175;-70
2021/08/01 03:53:43;;;;;;;8.93;7.97;;;16.30;99.90;;;;;;4977742;28;20222;-70
2021/08/01 03:56:09;;;;;;;9.50;8.07;;;16.20;99.90;;;;;;4994640;28;20186;-70
2021/08/01 03:58:34;;;;;;;10.80;8.30;;;16.20;99.90;;;;;;4994609;28;20258;-70
2021/08/01 04:01:00;;;;;;;9.40;8.50;;;16.20;99.90;;;;;;4994881;28;20175;-70
2021/08/01 04:03:26;;;;;;;10.23;9.20;;;16.10;99.90;;;;;;4994508;28;20602;-70
2021/08/01 04:05:51;;;;;;;10.30;8.10;;;16.20;99.90;;;;;;4994484;28;20171;-70
2021/08/01 04:08:17;;;;;;;9.63;8.63;;;16.20;99.90;;;;;;4994491;28;20210;-70
2021/08/01 04:10:43;;;;;;;10.57;7.10;;;16.20;99.90;;;;;;4994491;28;20163;-70
2021/08/01 04:13:08;;;;;;;9.00;8.20;;;16.20;99.90;;;;;;4994499;28;20245;-70
2021/08/01 04:15:34;;;;;;;9.43;7.73;;;16.20;99.90;;;;;;4994541;28;20172;-70
2021/08/01 04:18:02;;;;;;;11.40;7.73;;;16.20;99.90;;;;;;4994470;28;20612;-70
2021/08/01 04:20:29;;;;;;;8.53;7.63;;;16.20;99.90;;;;;;4994496;28;20170;-70
2021/08/01 04:22:55;;;;;;;11.23;8.47;;;16.30;99.90;;;;;;4994424;28;20517;-70
2021/08/01 04:25:21;;;;;;;10.57;7.20;;;16.20;99.90;;;;;;4994424;28;20410;-70
2021/08/01 04:27:47;;;;;;;8.90;8.00;;;16.20;99.90;;;;;;4994271;28;20418;-70
2021/08/01 04:30:13;;;;;;;8.87;8.07;;;16.30;99.90;;;;;;4994216;28;20398;-70
2021/08/01 04:32:39;;;;;;;10.20;9.00;;;16.30;99.90;;;;;;4994275;28;20413;-70
2021/08/01 04:35:05;;;;;;;14.90;10.00;;;16.30;99.90;;;;;;4996967;28;20175;-70
2021/08/01 04:37:31;;;;;;;9.53;8.63;;;16.30;99.90;;;;;;4998215;28;20198;-70
2021/08/01 04:39:57;;;;;;;13.87;9.77;;;16.40;99.90;;;;;;4998610;28;20481;-70
2021/08/01 04:42:23;;;;;;;12.97;9.17;;;16.30;99.90;;;;;;4998229;28;20780;-70
2021/08/01 04:44:48;;;;;;;11.60;10.10;;;16.30;99.90;;;;;;4998229;28;20182;-70
2021/08/01 04:47:14;;;;;;;11.43;10.23;;;16.30;99.90;;;;;;4998109;28;20194;-70
2021/08/01 04:49:41;;;;;;;15.17;10.30;;;16.30;99.90;;;;;;4997913;28;20190;-70
2021/08/01 04:52:07;;;;;;;10.50;9.50;;;16.40;99.90;;;;;;4998101;28;20396;-70
2021/08/01 04:54:36;;;;;;;11.87;10.70;;;16.40;99.90;;;;;;4998151;28;20410;-70
2021/08/01 04:57:05;;;;;;;11.80;9.70;;;16.30;99.90;;;;;;4997890;28;20402;-70
2021/08/01 04:59:34;;;;;;;12.97;10.40;;;16.40;99.90;;;;;;4997876;28;20417;-70
2021/08/01 05:02:00;;;;;;;10.67;9.50;;;16.40;99.90;;;;;;4997774;28;20503;-70
2021/08/01 05:04:26;;;;;;;10.50;8.57;;;16.40;99.90;;;;;;4997766;28;20406;-70
2021/08/01 05:06:51;;;;;;;17.90;10.90;;;16.40;99.90;;;;;;4997673;28;20469;-70
2021/08/01 05:09:17;;;;;;;14.23;10.20;;;16.50;99.90;;;;;;4997755;28;20171;-70
2021/08/01 05:11:42;;;;;;;11.10;10.00;;;16.50;99.90;;;;;;4997689;28;20229;-70
2021/08/01 05:14:08;;;;;;;13.00;11.47;;;16.50;99.90;;;;;;4997622;28;20172;-70
2021/08/01 05:16:34;;;;;;;11.97;8.93;;;16.50;99.90;;;;;;4997512;28;20551;-70
2021/08/01 05:18:59;;;;;;;14.13;11.83;;;16.50;99.90;;;;;;4997565;28;20163;-70
2021/08/01 05:21:25;;;;;;;14.70;11.30;;;16.60;99.90;;;;;;4997526;28;20266;-70
2021/08/01 05:23:51;;;;;;;19.47;12.57;;;16.60;99.90;;;;;;4997310;28;20201;-70
2021/08/01 05:26:17;;;;;;;13.70;11.13;;;16.60;99.90;;;;;;4997311;28;20643;-70
2021/08/01 05:28:43;;;;;;;12.83;11.50;;;16.60;99.90;;;;;;4997458;28;20179;-70
2021/08/01 05:31:09;;;;;;;12.93;11.40;;;16.60;99.90;;;;;;4997345;28;20414;-70
2021/08/01 05:33:35;;;;;;;14.23;11.13;;;16.60;99.90;;;;;;4997275;28;20427;-70
2021/08/01 05:36:11;;;;;;;13.43;12.07;;;16.70;99.90;;;;;;4997538;28;20181;-70
2021/08/01 05:38:38;;;;;;;13.03;11.70;;;16.70;99.90;;;;;;4997242;28;20669;-70
2021/08/01 05:41:04;;;;;;;14.40;11.00;;;16.80;99.90;;;;;;4997398;28;20494;-70
2021/08/01 05:43:30;;;;;;;14.57;10.83;;;16.80;99.90;;;;;;4996949;28;20533;-70
2021/08/01 05:45:57;;;;;;;12.80;10.60;;;16.80;99.90;;;;;;4996951;28;20250;-70
2021/08/01 05:48:22;;;;;;;14.10;11.40;;;16.80;99.90;;;;;;4996909;28;20190;-70
2021/08/01 05:50:48;;;;;;;13.00;11.40;;;16.70;99.90;;;;;;4996966;28;20410;-70
2021/08/01 05:53:16;;;;;;;14.70;11.90;;;16.80;99.90;;;;;;4996864;28;20175;-70
2021/08/01 05:55:43;;;;;;;15.97;9.90;;;16.80;99.90;;;;;;4997064;28;20434;-70
2021/08/01 05:58:09;;;;;;;12.83;11.50;;;16.90;99.90;;;;;;4996881;28;20793;-70
2021/08/01 06:00:34;;;;;;;13.23;11.30;;;16.90;99.90;;;;;;4996792;28;20217;-70
2021/08/01 06:03:00;;;;;;;15.27;11.77;;;16.90;99.90;;;;;;4996616;28;20281;-70
2021/08/01 06:05:26;;;;;;;12.23;10.93;;;16.90;99.90;;;;;;4996668;28;20175;-70
2021/08/01 06:07:51;;;;;;;15.73;11.07;;;16.90;99.90;;;;;;4996771;28;20277;-71
2021/08/01 06:10:17;;;;;;;11.80;10.70;;;17.00;99.90;;;;;;4996716;28;20175;-70
2021/08/01 06:12:42;;;;;;;10.90;9.80;;;17.10;99.90;;;;;;4996501;28;20605;-70
2021/08/01 06:15:08;;;;;;;17.73;12.00;;;17.20;99.90;;;;;;4996490;28;20172;-70
2021/08/01 06:17:35;;;;;;;13.90;12.50;;;17.20;99.90;;;;;;4996549;28;20171;-70
2021/08/01 06:20:00;;;;;;;13.17;11.83;;;17.20;99.90;;;;;;4996507;28;20183;-70
2021/08/01 06:22:26;;;;;;;13.87;11.83;;;17.30;99.90;;;;;;4996255;28;20457;-70
2021/08/01 06:24:52;;;;;;;15.13;12.50;;;17.30;99.90;;;;;;4996555;28;20270;-70
2021/08/01 06:27:18;;;;;;;15.50;12.53;;;17.40;99.90;;;;;;4996291;28;20201;-70
2021/08/01 06:29:45;;;;;;;14.83;13.07;;;17.30;99.90;;;;;;4996247;28;20402;-70
2021/08/01 06:32:10;;;;;;;14.00;11.30;;;17.30;99.90;;;;;;4996384;28;20410;-70
2021/08/01 06:34:36;;;;;;;16.13;12.57;;;17.40;99.90;;;;;;4996072;28;20856;-70
2021/08/01 06:37:02;;;;;;;14.93;10.90;;;17.40;99.90;;;;;;4996125;28;20167;-70
2021/08/01 06:39:27;;;;;;;17.30;11.57;;;17.50;99.90;;;;;;4996147;28;20171;-70
2021/08/01 06:41:53;;;;;;;16.20;12.20;;;17.60;99.90;;;;;;4995902;28;20164;-70
2021/08/01 06:44:19;;;;;;;13.73;12.10;;;17.60;99.90;;;;;;4995920;28;20605;-70
2021/08/01 06:46:44;;;;;;;14.17;11.00;;;17.60;99.90;;;;;;4995886;28;20598;-70
2021/08/01 06:49:10;;;;;;;15.47;11.20;;;17.50;99.90;;;;;;4995772;28;20183;-70
2021/08/01 06:51:36;;;;;;;14.90;12.70;;;17.40;99.90;;;;;;4995828;28;20258;-70
2021/08/01 06:54:01;;;;;;;13.20;10.80;;;17.30;99.90;;;;;;4995987;28;20179;-70
2021/08/01 06:56:29;;;;;;;18.37;12.20;;;17.30;99.90;;;;;;4995120;28;20174;-70
2021/08/01 06:58:54;;;;;;;12.67;10.30;;;17.20;99.90;;;;;;4995710;28;20175;-70
2021/08/01 07:01:20;;;;;;;16.17;11.10;;;17.20;99.90;;;;;;4978493;28;20432;-70
2021/08/01 07:03:45;;;;;;;12.40;11.10;;;17.30;99.90;;;;;;4995430;28;20191;-70
2021/08/01 07:06:12;;;;;;;17.80;11.70;;;17.30;99.90;;;;;;4995487;28;20176;-70
2021/08/01 07:08:38;;;;;;;13.53;10.10;;;17.30;99.90;;;;;;4995418;28;20171;-70
2021/08/01 07:11:04;;;;;;;15.13;10.90;;;17.40;99.90;;;;;;4995492;28;20426;-70
2021/08/01 07:13:30;;;;;;;12.73;9.67;;;17.60;99.90;;;;;;4995408;28;20182;-70
2021/08/01 07:16:05;;;;;;;12.33;10.20;;;17.70;99.90;;;;;;4995446;28;20423;-70
2021/08/01 07:18:31;;;;;;;10.97;9.47;;;17.80;99.90;;;;;;4995319;28;20167;-70
2021/08/01 07:20:58;;;;;;;11.70;10.43;;;17.80;99.90;;;;;;4995282;28;20443;-70
2021/08/01 07:23:24;;;;;;;11.83;10.17;;;18.00;99.90;;;;;;4995155;28;20446;-70
2021/08/01 07:25:49;;;;;;;13.20;10.87;;;18.10;99.90;;;;;;4995254;28;20983;-70
2021/08/01 07:28:15;;;;;;;13.60;11.30;;;18.30;99.90;;;;;;4995187;28;20475;-70
2021/08/01 07:30:41;;;;;;;13.30;9.67;;;18.30;99.90;;;;;;4994987;28;20225;-71
2021/08/01 07:33:07;;;;;;;13.50;11.17;;;18.40;99.90;;;;;;4994994;28;20654;-70
2021/08/01 07:35:32;;;;;;;15.47;11.30;;;18.40;99.90;;;;;;4995012;28;20171;-70
2021/08/01 07:37:58;;;;;;;14.67;10.80;;;18.30;99.90;;;;;;4994945;28;20171;-70
2021/08/01 07:40:23;;;;;;;13.00;10.43;;;18.20;99.90;;;;;;4994871;28;20172;-70
2021/08/01 07:42:49;;;;;;;15.53;11.83;;;18.20;99.90;;;;;;4994768;28;20602;-70
2021/08/01 07:45:31;;;;;;;11.77;10.43;;;18.50;99.90;;;;;;4994882;28;20496;-70
2021/08/01 07:47:57;;;;;;;13.40;10.90;;;18.60;99.90;;;;;;4994552;28;20640;-71
2021/08/01 07:50:23;;;;;;;12.83;10.43;;;18.80;99.90;;;;;;4994745;28;20499;-70
2021/08/01 07:52:48;;;;;;;11.00;9.90;;;18.90;99.90;;;;;;4994806;28;20184;-70
2021/08/01 07:55:15;;;;;;;11.70;9.43;;;18.90;99.90;;;;;;4994750;28;20167;-70
2021/08/01 07:57:42;;;;;;;10.90;9.90;;;18.90;99.90;;;;;;4994673;28;20167;-70
2021/08/01 08:00:08;;;;;;;9.43;8.53;;;19.00;99.90;;;;;;4994764;28;20437;-70
2021/08/01 08:02:34;;;;;;;9.10;8.20;;;19.10;99.90;;;;;;4994582;28;20446;-70
2021/08/01 08:05:00;;;;;;;8.90;8.10;;;19.10;99.90;;;;;;4994552;28;20410;-70
2021/08/01 08:07:25;;;;;;;9.27;8.43;;;19.20;99.90;;;;;;4994533;28;20167;-70
2021/08/01 08:09:51;;;;;;;8.83;8.00;;;19.20;99.90;;;;;;4993566;28;20159;-70
2021/08/01 08:12:17;;;;;;;8.73;7.83;;;19.30;99.90;;;;;;4994520;28;20247;-70
2021/08/01 08:14:43;;;;;;;8.97;8.20;;;19.30;99.90;;;;;;4994452;28;20179;-70
2021/08/01 08:17:09;;;;;;;10.10;8.40;;;19.20;99.90;;;;;;4994373;28;20846;-70
2021/08/01 08:19:35;;;;;;;8.67;7.70;;;19.20;99.90;;;;;;4994346;28;20171;-70
2021/08/01 08:22:01;;;;;;;8.53;7.60;;;19.30;99.90;;;;;;4994259;28;20438;-70
2021/08/01 08:24:27;;;;;;;8.00;6.77;;;19.40;99.90;;;;;;4994392;28;20418;-70
2021/08/01 08:26:53;;;;;;;7.20;6.50;;;19.50;99.90;;;;;;4977339;28;20767;-70
2021/08/01 08:29:23;;;;;;;6.83;6.37;;;19.70;99.90;;;;;;4994225;28;20487;-70
2021/08/01 08:31:53;;;;;;;6.37;5.70;;;19.80;99.90;;;;;;4994271;28;20420;-70
2021/08/01 08:34:20;;;;;;;7.40;6.23;;;19.90;99.90;;;;;;4994555;28;20383;-70
2021/08/01 08:36:49;;;;;;;5.87;5.37;;;20.00;99.90;;;;;;4994128;28;20415;-70
2021/08/01 08:39:17;;;;;;;7.67;6.07;;;19.90;99.90;;;;;;4994405;28;20421;-70
2021/08/01 08:41:43;;;;;;;6.83;6.23;;;19.80;99.90;;;;;;4994060;28;20465;-70
2021/08/01 08:44:09;;;;;;;7.47;6.00;;;19.80;99.90;;;;;;4994114;28;20450;-70
2021/08/01 08:46:35;;;;;;;8.37;7.20;;;19.80;99.90;;;;;;4994122;28;20939;-70
2021/08/01 08:49:10;;;;;;;6.73;6.20;;;19.90;99.90;;;;;;4994007;28;20882;-70
2021/08/01 08:51:45;;;;;;;7.53;6.37;;;20.00;99.90;;;;;;4994123;28;20848;-70
2021/08/01 08:54:19;;;;;;;8.60;5.97;;;20.10;99.90;;;;;;4994058;28;20409;-70
2021/08/01 08:56:47;;;;;;;6.03;5.63;;;20.30;99.90;;;;;;4994044;28;20466;-70
2021/08/01 08:59:23;;;;;;;7.03;6.00;;;20.30;99.90;;;;;;4993962;28;20407;-70
2021/08/01 09:01:48;;;;;;;6.00;5.60;;;20.30;99.90;;;;;;4993956;28;20739;-70
2021/08/01 09:04:15;;;;;;;6.87;6.30;;;20.40;99.90;;;;;;4994024;28;20409;-70
2021/08/01 09:06:41;;;;;;;6.80;6.20;;;20.40;99.90;;;;;;4994005;28;20175;-70
2021/08/01 09:09:09;;;;;;;5.90;5.40;;;20.50;99.90;;;;;;4993863;28;20411;-70
2021/08/01 09:11:35;;;;;;;6.53;5.80;;;20.40;99.90;;;;;;4993934;28;20403;-70
2021/08/01 09:14:00;;;;;;;6.20;5.70;;;20.60;99.90;;;;;;4993941;28;20417;-70
2021/08/01 09:16:43;;;;;;;5.30;4.90;;;20.70;99.90;;;;;;4993873;28;20186;-70
2021/08/01 09:19:33;;;;;;;5.30;4.93;;;20.80;99.90;;;;;;4994194;28;20594;-70
2021/08/01 09:22:14;;;;;;;5.23;4.80;;;20.90;99.90;;;;;;4997667;28;20782;-70
2021/08/01 09:24:40;;;;;;;5.20;4.70;;;21.00;99.90;;;;;;4997663;28;20477;-70
2021/08/01 09:27:06;;;;;;;4.93;4.40;;;21.10;99.90;;;;;;4997466;28;20418;-70
2021/08/01 09:29:48;;;;;;;5.10;4.60;;;20.80;99.90;;;;;;4997465;28;20493;-70
2021/08/01 09:32:14;;;;;;;5.50;5.13;;;20.40;99.90;;;;;;4997342;28;20403;-70
2021/08/01 09:34:45;;;;;;;6.00;4.57;;;20.50;99.90;;;;;;4997266;28;20756;-70
2021/08/01 09:37:11;;;;;;;4.30;4.00;;;20.40;99.90;;;;;;4997344;28;20514;-70
2021/08/01 09:39:41;;;;;;;5.57;4.07;;;20.40;99.90;;;;;;4997236;28;20477;-70
2021/08/01 09:42:07;;;;;;;3.60;3.40;;;20.40;99.90;;;;;;4997603;28;20171;-70
2021/08/01 09:44:38;;;;;;;3.90;3.60;;;20.40;99.90;;;;;;4997012;28;20406;-70
2021/08/01 09:47:04;;;;;;;6.60;3.57;;;20.60;99.90;;;;;;4997122;28;20414;-70
2021/08/01 09:49:30;;;;;;;4.40;4.10;;;20.70;99.90;;;;;;4996878;28;20522;-70
2021/08/01 09:52:03;;;;;;;4.20;3.80;;;20.70;99.90;;;;;;4997182;28;20411;-70
2021/08/01 09:54:44;;;;;;;4.80;3.87;;;20.60;99.90;;;;;;4996982;28;20453;-70
2021/08/01 09:57:19;;;;;;;3.83;3.53;;;20.50;99.90;;;;;;4996865;28;20887;-70
2021/08/01 09:59:47;;;;;;;4.70;4.40;;;20.30;99.90;;;;;;4996904;28;20401;-70
2021/08/01 10:02:14;;;;;;;3.80;3.50;;;20.40;99.90;;;;;;4996866;28;20501;-70
2021/08/01 10:04:42;;;;;;;3.50;3.20;;;20.60;99.90;;;;;;4996768;28;20421;-70
2021/08/01 10:07:12;;;;;;;3.53;3.30;;;20.90;99.90;;;;;;4996695;28;20426;-70
2021/08/01 10:09:40;;;;;;;3.67;3.47;;;21.10;99.90;;;;;;4996628;28;20407;-70
2021/08/01 10:12:07;;;;;;;4.43;3.33;;;21.10;99.90;;;;;;4996497;28;20406;-70
2021/08/01 10:14:34;;;;;;;5.53;3.37;;;21.40;99.90;;;;;;4996610;28;20891;-70
2021/08/01 10:17:00;;;;;;;3.47;2.90;;;21.50;99.90;;;;;;4996592;28;20426;-70
2021/08/01 10:19:26;;;;;;;5.00;3.20;;;21.60;99.90;;;;;;4996414;28;20406;-70
2021/08/01 10:21:58;;;;;;;3.23;3.00;;;21.70;99.90;;;;;;4996286;28;20414;-70
2021/08/01 10:24:34;;;;;;;4.03;3.73;;;21.50;99.90;;;;;;4996474;28;20593;-70
2021/08/01 10:27:05;;;;;;;3.57;3.20;;;21.40;99.90;;;;;;4996566;28;20749;-70
2021/08/01 10:29:45;;;;;;;4.13;3.73;;;21.60;99.90;;;;;;4996355;28;20391;-70
2021/08/01 10:32:12;;;;;;;3.10;3.00;;;21.60;99.90;;;;;;4995290;28;20477;-70
2021/08/01 10:34:46;;;;;;;3.50;3.30;;;21.70;99.90;;;;;;4979157;28;20767;-70
2021/08/01 10:37:44;;;;;;;3.50;3.30;;;21.80;99.90;;;;;;4996219;28;20389;-70
2021/08/01 10:40:12;;;;;;;3.33;3.13;;;21.80;99.90;;;;;;4956884;28;20417;-70
2021/08/01 10:42:40;;;;;;;3.17;2.97;;;22.10;99.90;;;;;;4995882;28;20458;-70
2021/08/01 10:45:06;;;;;;;2.87;2.77;;;22.20;99.90;;;;;;4995958;28;20477;-70
2021/08/01 10:47:34;;;;;;;3.23;3.03;;;22.00;99.90;;;;;;4995981;28;20461;-70
2021/08/01 10:50:01;;;;;;;3.40;3.10;;;22.30;99.90;;;;;;4995881;28;20426;-70
2021/08/01 10:52:33;;;;;;;3.13;3.03;;;22.60;99.90;;;;;;4995837;28;20540;-70
2021/08/01 10:55:06;;;;;;;2.83;2.73;;;22.70;99.90;;;;;;4978678;28;20513;-70
2021/08/01 10:57:33;;;;;;;3.63;3.43;;;22.40;99.90;;;;;;4995719;28;20410;-70
2021/08/01 11:00:09;;;;;;;3.40;3.20;;;22.50;99.90;;;;;;4995653;28;20406;-70
2021/08/01 11:02:35;;;;;;;3.30;3.10;;;22.70;99.90;;;;;;4995685;28;20474;-70
2021/08/01 11:05:32;;;;;;;3.00;2.90;;;22.40;99.90;;;;;;4995638;28;20410;-70
2021/08/01 11:07:57;;;;;;;3.33;3.03;;;22.30;99.90;;;;;;4995598;28;20390;-70
2021/08/01 11:10:23;;;;;;;3.87;3.47;;;22.00;99.90;;;;;;4995493;28;20394;-70
2021/08/01 11:12:49;;;;;;;6.03;4.60;;;21.70;99.90;;;;;;4995362;28;20171;-69
2021/08/01 11:15:16;;;;;;;4.10;3.80;;;21.50;99.90;;;;;;4995486;28;20175;-70
2021/08/01 11:17:46;;;;;;;5.37;4.87;;;21.50;99.90;;;;;;4995712;28;20601;-71
2021/08/01 11:20:15;;;;;;;5.93;5.47;;;21.40;99.90;;;;;;4995592;28;20406;-71
2021/08/01 11:22:43;;;;;;;5.13;4.70;;;21.50;99.90;;;;;;4995227;28;20454;-70
2021/08/01 11:25:30;;;;;;;4.97;4.67;;;21.80;99.90;;;;;;4995278;28;20461;-70
2021/08/01 11:28:08;;;;;;;4.37;4.07;;;22.10;99.90;;;;;;4995193;28;20414;-70
2021/08/01 11:30:58;;;;;;;4.93;4.53;;;22.40;99.90;;;;;;4995430;28;20410;-71
2021/08/01 11:33:43;;;;;;;5.00;4.50;;;22.50;99.90;;;;;;4995266;28;20442;-71
2021/08/01 11:36:12;;;;;;;6.70;5.03;;;22.70;99.90;;;;;;4995007;28;20497;-70
2021/08/01 11:38:53;;;;;;;4.10;3.60;;;22.60;99.90;;;;;;4995060;28;20717;-70
2021/08/01 11:41:35;;;;;;;4.53;4.13;;;22.50;99.90;;;;;;4994788;28;20954;-70
2021/08/01 11:44:20;;;;;;;4.80;4.30;;;22.40;99.90;;;;;;4994842;28;20905;-70
2021/08/01 11:47:03;;;;;;;4.60;4.30;;;22.20;99.90;;;;;;4977717;28;20934;-71
2021/08/01 11:49:44;;;;;;;3.80;3.60;;;22.00;99.90;;;;;;4994681;28;20470;-70
2021/08/01 11:52:11;;;;;;;4.27;3.83;;;21.70;99.90;;;;;;4994874;28;20434;-71
2021/08/01 11:54:41;;;;;;;4.20;3.90;;;21.70;99.90;;;;;;4994949;28;20441;-71
2021/08/01 11:57:09;;;;;;;4.70;4.20;;;21.80;99.90;;;;;;4994653;28;20437;-70
2021/08/01 11:59:35;;;;;;;4.13;3.83;;;22.00;99.90;;;;;;4994727;28;20496;-70
2021/08/01 12:02:06;;;;;;;4.33;3.93;;;22.10;99.90;;;;;;4994561;28;20402;-70
2021/08/01 12:04:32;;;;;;;3.63;3.43;;;22.10;99.90;;;;;;4994616;28;20418;-70
2021/08/01 12:06:58;;;;;;;3.80;3.43;;;22.20;99.90;;;;;;4994554;28;20395;-70
2021/08/01 12:09:28;;;;;;;3.40;3.20;;;22.40;99.90;;;;;;4994626;28;20167;-70
2021/08/01 12:11:56;;;;;;;3.70;3.50;;;22.50;99.90;;;;;;4994533;28;20152;-70
2021/08/01 12:14:23;;;;;;;4.17;3.87;;;22.50;99.90;;;;;;4994500;28;20403;-70
2021/08/01 12:17:11;;;;;;;3.43;3.23;;;22.50;99.90;;;;;;4994469;28;20884;-71
2021/08/01 12:19:47;;;;;;;3.97;3.77;;;22.40;99.90;;;;;;4994379;28;20769;-70
2021/08/01 12:22:21;;;;;;;3.47;3.17;;;22.40;99.90;;;;;;4994599;28;20497;-70
2021/08/01 12:25:06;;;;;;;3.73;3.40;;;22.10;99.90;;;;;;4994367;28;20391;-70
2021/08/01 12:27:37;;;;;;;3.97;3.67;;;21.90;99.90;;;;;;4994465;28;20414;-70
2021/08/01 12:30:07;;;;;;;3.67;3.47;;;21.70;99.90;;;;;;4994317;28;20699;-70
2021/08/01 12:32:36;;;;;;;4.63;3.50;;;21.70;99.90;;;;;;4994349;28;20988;-70
2021/08/01 12:35:12;;;;;;;5.30;4.90;;;21.60;99.90;;;;;;4994215;28;20403;-69
2021/08/01 12:37:52;;;;;;;4.43;4.03;;;21.30;99.90;;;;;;4994281;28;20464;-70
2021/08/01 12:40:29;;;;;;;2.60;2.40;;;21.10;99.90;;;;;;4994336;28;20403;-70
2021/08/01 12:43:04;;;;;;;2.00;1.90;;;20.70;99.90;;;;;;4994165;28;20487;-70
2021/08/01 12:45:40;;;;;;;2.00;1.90;;;20.20;99.90;;;;;;4994188;28;20405;-70
2021/08/01 12:48:10;;;;;;;2.83;2.63;;;19.80;99.90;;;;;;4994241;28;20405;-71
2021/08/01 12:50:39;;;;;;;3.50;3.30;;;19.40;99.90;;;;;;4994440;28;20402;-70